VRG1019 SBRJ-SBCF
Flight info
| Callsign | VRG1019 |
|---|---|
| Flight time | 1h 42m |
| Altitude | 8000 |
| Route | PAI DCT CNF |
| Aircraft | DC3/M-SDF/S |
Departure
| Time | 2026-05-04 01:33 |
|---|---|
| Airport | Santos Dumont Airport (SBRJ) |
Arrival
| Time | 2026-05-04 03:15 |
|---|---|
| Airport | Tancredo Neves International Airport (SBCF) |
| Time | Latitude | Longitude | Altitude | Speed | Heading |
|---|---|---|---|---|---|
| 2026-05-04 01:15 | -22.91051 | -43.16612 | 23 ft | 0 kts | 266° |
| 2026-05-04 01:27 | -22.91051 | -43.16614 | 23 ft | 1 kts | 235° |
| 2026-05-04 01:27 | -22.91055 | -43.16617 | 23 ft | 1 kts | 131° |
| 2026-05-04 01:28 | -22.91052 | -43.16588 | 24 ft | 9 kts | 79° |
| 2026-05-04 01:28 | -22.91079 | -43.16534 | 23 ft | 11 kts | 169° |
| 2026-05-04 01:28 | -22.91157 | -43.16516 | 24 ft | 12 kts | 176° |
| 2026-05-04 01:28 | -22.91248 | -43.16511 | 23 ft | 14 kts | 177° |
| 2026-05-04 01:29 | -22.91356 | -43.16504 | 24 ft | 17 kts | 176° |
| 2026-05-04 01:29 | -22.91453 | -43.16449 | 25 ft | 15 kts | 137° |
| 2026-05-04 01:29 | -22.91474 | -43.16428 | 22 ft | 0 kts | 137° |
| 2026-05-04 01:31 | -22.91502 | -43.16400 | 22 ft | 9 kts | 136° |
| 2026-05-04 01:31 | -22.91565 | -43.16335 | 21 ft | 15 kts | 137° |
| 2026-05-04 01:31 | -22.91579 | -43.16250 | 21 ft | 12 kts | 12° |
| 2026-05-04 01:31 | -22.91556 | -43.16249 | 21 ft | 0 kts | 356° |
| 2026-05-04 01:32 | -22.91442 | -43.16256 | 21 ft | 37 kts | 357° |
| 2026-05-04 01:32 | -22.91078 | -43.16281 | 23 ft | 66 kts | 358° |
| 2026-05-04 01:32 | -22.90583 | -43.16315 | 140 ft | 70 kts | 358° |
| 2026-05-04 01:32 | -22.90098 | -43.16375 | 298 ft | 72 kts | 349° |
| 2026-05-04 01:33 | -22.89637 | -43.16627 | 459 ft | 79 kts | 314° |
| 2026-05-04 01:33 | -22.89359 | -43.17163 | 675 ft | 82 kts | 295° |
| 2026-05-04 01:33 | -22.89118 | -43.17700 | 920 ft | 77 kts | 295° |
| 2026-05-04 01:33 | -22.88857 | -43.18238 | 1068 ft | 85 kts | 297° |
| 2026-05-04 01:34 | -22.88542 | -43.18819 | 1217 ft | 94 kts | 301° |
| 2026-05-04 01:34 | -22.88150 | -43.19417 | 1386 ft | 101 kts | 309° |
| 2026-05-04 01:34 | -22.87669 | -43.20017 | 1604 ft | 105 kts | 303° |
| 2026-05-04 01:34 | -22.87178 | -43.20635 | 1796 ft | 111 kts | 317° |
| 2026-05-04 01:35 | -22.86567 | -43.21109 | 2095 ft | 103 kts | 329° |
| 2026-05-04 01:35 | -22.85910 | -43.21399 | 2323 ft | 103 kts | 345° |
| 2026-05-04 01:35 | -22.85186 | -43.21600 | 2509 ft | 106 kts | 343° |
| 2026-05-04 01:35 | -22.84514 | -43.21876 | 2786 ft | 99 kts | 329° |
| 2026-05-04 01:36 | -22.84186 | -43.22174 | 2979 ft | 88 kts | 303° |
| 2026-05-04 01:36 | -22.83864 | -43.22726 | 3137 ft | 90 kts | 304° |
| 2026-05-04 01:36 | -22.83466 | -43.23289 | 3260 ft | 98 kts | 300° |
| 2026-05-04 01:36 | -22.83082 | -43.23921 | 3429 ft | 103 kts | 303° |
| 2026-05-04 01:37 | -22.82639 | -43.24538 | 3614 ft | 105 kts | 306° |
| 2026-05-04 01:37 | -22.82185 | -43.25152 | 3823 ft | 104 kts | 306° |
| 2026-05-04 01:37 | -22.81729 | -43.25767 | 3974 ft | 110 kts | 306° |
| 2026-05-04 01:37 | -22.81213 | -43.26449 | 4075 ft | 121 kts | 307° |
| 2026-05-04 01:38 | -22.80659 | -43.27165 | 4238 ft | 126 kts | 308° |
| 2026-05-04 01:38 | -22.80088 | -43.27896 | 4414 ft | 128 kts | 308° |
| 2026-05-04 01:38 | -22.79511 | -43.28633 | 4606 ft | 129 kts | 308° |
| 2026-05-04 01:38 | -22.78931 | -43.29373 | 4803 ft | 129 kts | 308° |
| 2026-05-04 01:39 | -22.78350 | -43.30117 | 4992 ft | 130 kts | 308° |
| 2026-05-04 01:39 | -22.77767 | -43.30859 | 5167 ft | 129 kts | 309° |
| 2026-05-04 01:39 | -22.77193 | -43.31597 | 5331 ft | 128 kts | 308° |
| 2026-05-04 01:39 | -22.76621 | -43.32330 | 5493 ft | 127 kts | 309° |
| 2026-05-04 01:40 | -22.76048 | -43.33069 | 5654 ft | 126 kts | 308° |
| 2026-05-04 01:40 | -22.75485 | -43.33800 | 5796 ft | 126 kts | 308° |
| 2026-05-04 01:40 | -22.74928 | -43.34533 | 5947 ft | 126 kts | 306° |
| 2026-05-04 01:40 | -22.74477 | -43.35340 | 6080 ft | 126 kts | 291° |
| 2026-05-04 01:41 | -22.74159 | -43.36224 | 6227 ft | 126 kts | 288° |
| 2026-05-04 01:41 | -22.73866 | -43.37116 | 6372 ft | 125 kts | 287° |
| 2026-05-04 01:41 | -22.73581 | -43.38008 | 6523 ft | 126 kts | 287° |
| 2026-05-04 01:41 | -22.73298 | -43.38905 | 6659 ft | 126 kts | 287° |
| 2026-05-04 01:42 | -22.73020 | -43.39805 | 6800 ft | 126 kts | 287° |
| 2026-05-04 01:42 | -22.72748 | -43.40702 | 6924 ft | 125 kts | 287° |
| 2026-05-04 01:42 | -22.72477 | -43.41592 | 7055 ft | 124 kts | 287° |
| 2026-05-04 01:42 | -22.72212 | -43.42478 | 7184 ft | 123 kts | 287° |
| 2026-05-04 01:43 | -22.71950 | -43.43360 | 7310 ft | 123 kts | 287° |
| 2026-05-04 01:43 | -22.71686 | -43.44251 | 7436 ft | 122 kts | 287° |
| 2026-05-04 01:43 | -22.71430 | -43.45127 | 7562 ft | 122 kts | 287° |
| 2026-05-04 01:43 | -22.71179 | -43.46002 | 7684 ft | 122 kts | 287° |
| 2026-05-04 01:44 | -22.70932 | -43.46876 | 7812 ft | 121 kts | 287° |
| 2026-05-04 01:44 | -22.70691 | -43.47747 | 7938 ft | 120 kts | 287° |
| 2026-05-04 01:44 | -22.70455 | -43.48614 | 8063 ft | 120 kts | 287° |
| 2026-05-04 01:44 | -22.70220 | -43.49490 | 8203 ft | 121 kts | 287° |
| 2026-05-04 01:45 | -22.69911 | -43.50337 | 8293 ft | 122 kts | 294° |
| 2026-05-04 01:45 | -22.69529 | -43.51189 | 8300 ft | 129 kts | 301° |
| 2026-05-04 01:45 | -22.68485 | -43.52846 | 8335 ft | 138 kts | 306° |
| 2026-05-04 01:46 | -22.67909 | -43.53697 | 8345 ft | 142 kts | 306° |
| 2026-05-04 01:46 | -22.67313 | -43.54563 | 8351 ft | 145 kts | 307° |
| 2026-05-04 01:46 | -22.66697 | -43.55436 | 8376 ft | 147 kts | 308° |
| 2026-05-04 01:46 | -22.66051 | -43.56307 | 8366 ft | 150 kts | 309° |
| 2026-05-04 01:47 | -22.65385 | -43.57188 | 8364 ft | 152 kts | 309° |
| 2026-05-04 01:47 | -22.64710 | -43.58074 | 8360 ft | 153 kts | 309° |
| 2026-05-04 01:47 | -22.64027 | -43.58972 | 8345 ft | 156 kts | 309° |
| 2026-05-04 01:47 | -22.63333 | -43.59880 | 8326 ft | 157 kts | 309° |
| 2026-05-04 01:48 | -22.62634 | -43.60797 | 8318 ft | 158 kts | 309° |
| 2026-05-04 01:48 | -22.61932 | -43.61719 | 8304 ft | 159 kts | 309° |
| 2026-05-04 01:48 | -22.61224 | -43.62644 | 8289 ft | 160 kts | 309° |
| 2026-05-04 01:48 | -22.60537 | -43.63590 | 8291 ft | 160 kts | 305° |
| 2026-05-04 01:49 | -22.59911 | -43.64586 | 8287 ft | 160 kts | 304° |
| 2026-05-04 01:49 | -22.59294 | -43.65591 | 8287 ft | 160 kts | 303° |
| 2026-05-04 01:49 | -22.58685 | -43.66600 | 8274 ft | 160 kts | 302° |
| 2026-05-04 01:49 | -22.58051 | -43.67614 | 8271 ft | 161 kts | 306° |
| 2026-05-04 01:50 | -22.57368 | -43.68575 | 8260 ft | 161 kts | 309° |
| 2026-05-04 01:50 | -22.56640 | -43.69501 | 8244 ft | 162 kts | 311° |
| 2026-05-04 01:50 | -22.55891 | -43.70412 | 8243 ft | 162 kts | 311° |
| 2026-05-04 01:50 | -22.55140 | -43.71316 | 8252 ft | 162 kts | 311° |
| 2026-05-04 01:51 | -22.54386 | -43.72221 | 8245 ft | 162 kts | 311° |
| 2026-05-04 01:51 | -22.53631 | -43.73130 | 8235 ft | 163 kts | 311° |
| 2026-05-04 01:51 | -22.52874 | -43.74041 | 8211 ft | 163 kts | 311° |
| 2026-05-04 01:51 | -22.52117 | -43.74953 | 8208 ft | 163 kts | 311° |
| 2026-05-04 01:52 | -22.51363 | -43.75861 | 8210 ft | 162 kts | 311° |
| 2026-05-04 01:52 | -22.50612 | -43.76768 | 8216 ft | 161 kts | 311° |
| 2026-05-04 01:52 | -22.49889 | -43.77692 | 8224 ft | 161 kts | 307° |
| 2026-05-04 01:52 | -22.49234 | -43.78667 | 8223 ft | 160 kts | 304° |
| 2026-05-04 01:53 | -22.48603 | -43.79658 | 8233 ft | 160 kts | 303° |
| 2026-05-04 01:53 | -22.47985 | -43.80655 | 8244 ft | 160 kts | 303° |
| 2026-05-04 01:53 | -22.47369 | -43.81655 | 8248 ft | 160 kts | 303° |
| 2026-05-04 01:53 | -22.46741 | -43.82647 | 8251 ft | 160 kts | 306° |
| 2026-05-04 01:54 | -22.46074 | -43.83604 | 8255 ft | 160 kts | 307° |
| 2026-05-04 01:54 | -22.45235 | -43.84381 | 8221 ft | 164 kts | 338° |
| 2026-05-04 01:54 | -22.44105 | -43.84536 | 8219 ft | 164 kts | 356° |
| 2026-05-04 01:54 | -22.42966 | -43.84570 | 8247 ft | 163 kts | 358° |
| 2026-05-04 01:55 | -22.41841 | -43.84583 | 8279 ft | 161 kts | 359° |
| 2026-05-04 01:55 | -22.40727 | -43.84589 | 8307 ft | 158 kts | 359° |
| 2026-05-04 01:55 | -22.39639 | -43.84593 | 8347 ft | 155 kts | 359° |
| 2026-05-04 01:55 | -22.38565 | -43.84595 | 8381 ft | 154 kts | 359° |
| 2026-05-04 01:56 | -22.37497 | -43.84596 | 8415 ft | 153 kts | 359° |
| 2026-05-04 01:56 | -22.36433 | -43.84597 | 8448 ft | 153 kts | 359° |
| 2026-05-04 01:56 | -22.35372 | -43.84605 | 8479 ft | 152 kts | 358° |
| 2026-05-04 01:56 | -22.34296 | -43.84617 | 8515 ft | 153 kts | 358° |
| 2026-05-04 01:57 | -22.33232 | -43.84631 | 8561 ft | 153 kts | 358° |
| 2026-05-04 01:57 | -22.32168 | -43.84647 | 8602 ft | 153 kts | 358° |
| 2026-05-04 01:57 | -22.31102 | -43.84665 | 8647 ft | 153 kts | 358° |
| 2026-05-04 01:57 | -22.30038 | -43.84685 | 8683 ft | 153 kts | 358° |
| 2026-05-04 01:58 | -22.28971 | -43.84704 | 8725 ft | 154 kts | 358° |
| 2026-05-04 01:58 | -22.27901 | -43.84726 | 8778 ft | 154 kts | 358° |
| 2026-05-04 01:58 | -22.26829 | -43.84747 | 8823 ft | 154 kts | 357° |
| 2026-05-04 01:58 | -22.25757 | -43.84769 | 8872 ft | 154 kts | 358° |
| 2026-05-04 01:59 | -22.24685 | -43.84793 | 8925 ft | 154 kts | 358° |
| 2026-05-04 01:59 | -22.23611 | -43.84818 | 8972 ft | 154 kts | 357° |
| 2026-05-04 01:59 | -22.22538 | -43.84842 | 9003 ft | 154 kts | 358° |
| 2026-05-04 01:59 | -22.21468 | -43.84868 | 9053 ft | 154 kts | 357° |
| 2026-05-04 02:00 | -22.20397 | -43.84895 | 9111 ft | 154 kts | 357° |
| 2026-05-04 02:00 | -22.19326 | -43.84920 | 9140 ft | 154 kts | 357° |
| 2026-05-04 02:00 | -22.18257 | -43.84949 | 9203 ft | 154 kts | 357° |
| 2026-05-04 02:00 | -22.17190 | -43.84978 | 9243 ft | 153 kts | 357° |
| 2026-05-04 02:01 | -22.16131 | -43.85003 | 9271 ft | 152 kts | 357° |
| 2026-05-04 02:01 | -22.15077 | -43.85027 | 9296 ft | 151 kts | 357° |
| 2026-05-04 02:01 | -22.14030 | -43.85051 | 9322 ft | 150 kts | 357° |
| 2026-05-04 02:01 | -22.12983 | -43.85076 | 9328 ft | 150 kts | 357° |
| 2026-05-04 02:02 | -22.11941 | -43.85100 | 9333 ft | 150 kts | 357° |
| 2026-05-04 02:02 | -22.10894 | -43.85126 | 9341 ft | 150 kts | 357° |
| 2026-05-04 02:02 | -22.09850 | -43.85151 | 9341 ft | 150 kts | 357° |
| 2026-05-04 02:02 | -22.08809 | -43.85175 | 9354 ft | 150 kts | 357° |
| 2026-05-04 02:03 | -22.07755 | -43.85200 | 9366 ft | 149 kts | 357° |
| 2026-05-04 02:03 | -22.06721 | -43.85224 | 9374 ft | 149 kts | 357° |
| 2026-05-04 02:03 | -22.05686 | -43.85249 | 9377 ft | 149 kts | 357° |
| 2026-05-04 02:03 | -22.04654 | -43.85281 | 9393 ft | 148 kts | 357° |
| 2026-05-04 02:04 | -22.03622 | -43.85318 | 9389 ft | 149 kts | 356° |
| 2026-05-04 02:04 | -22.02585 | -43.85352 | 9391 ft | 149 kts | 356° |
| 2026-05-04 02:04 | -22.01545 | -43.85387 | 9386 ft | 150 kts | 357° |
| 2026-05-04 02:04 | -22.00501 | -43.85421 | 9378 ft | 150 kts | 357° |
| 2026-05-04 02:05 | -21.99457 | -43.85457 | 9383 ft | 150 kts | 356° |
| 2026-05-04 02:05 | -21.98412 | -43.85497 | 9381 ft | 150 kts | 356° |
| 2026-05-04 02:05 | -21.97368 | -43.85539 | 9392 ft | 150 kts | 356° |
| 2026-05-04 02:05 | -21.96325 | -43.85577 | 9402 ft | 150 kts | 356° |
| 2026-05-04 02:06 | -21.95284 | -43.85616 | 9413 ft | 150 kts | 356° |
| 2026-05-04 02:06 | -21.94239 | -43.85658 | 9402 ft | 151 kts | 356° |
| 2026-05-04 02:06 | -21.93188 | -43.85706 | 9387 ft | 152 kts | 356° |
| 2026-05-04 02:06 | -21.92133 | -43.85757 | 9377 ft | 152 kts | 356° |
| 2026-05-04 02:07 | -21.91070 | -43.85809 | 9371 ft | 153 kts | 356° |
| 2026-05-04 02:07 | -21.90005 | -43.85866 | 9365 ft | 153 kts | 356° |
| 2026-05-04 02:07 | -21.88937 | -43.85922 | 9356 ft | 154 kts | 356° |
| 2026-05-04 02:07 | -21.87870 | -43.85981 | 9355 ft | 154 kts | 356° |
| 2026-05-04 02:08 | -21.86803 | -43.86045 | 9353 ft | 154 kts | 356° |
| 2026-05-04 02:08 | -21.85734 | -43.86108 | 9359 ft | 154 kts | 356° |
| 2026-05-04 02:08 | -21.84668 | -43.86173 | 9348 ft | 154 kts | 356° |
| 2026-05-04 02:08 | -21.83600 | -43.86238 | 9333 ft | 154 kts | 356° |
| 2026-05-04 02:09 | -21.82879 | -43.86283 | 9318 ft | 153 kts | 356° |
| 2026-05-04 02:09 | -21.81813 | -43.86351 | 9315 ft | 153 kts | 356° |
| 2026-05-04 02:09 | -21.80747 | -43.86420 | 9304 ft | 153 kts | 356° |
| 2026-05-04 02:09 | -21.79682 | -43.86491 | 9299 ft | 153 kts | 356° |
| 2026-05-04 02:10 | -21.78616 | -43.86563 | 9286 ft | 154 kts | 356° |
| 2026-05-04 02:10 | -21.77549 | -43.86641 | 9274 ft | 154 kts | 356° |
| 2026-05-04 02:10 | -21.76483 | -43.86720 | 9265 ft | 154 kts | 356° |
| 2026-05-04 02:10 | -21.75417 | -43.86801 | 9248 ft | 154 kts | 356° |
| 2026-05-04 02:11 | -21.74350 | -43.86885 | 9249 ft | 154 kts | 356° |
| 2026-05-04 02:11 | -21.73282 | -43.86972 | 9246 ft | 154 kts | 356° |
| 2026-05-04 02:11 | -21.72216 | -43.87062 | 9243 ft | 154 kts | 356° |
| 2026-05-04 02:11 | -21.71147 | -43.87156 | 9249 ft | 154 kts | 356° |
| 2026-05-04 02:12 | -21.70080 | -43.87247 | 9241 ft | 154 kts | 355° |
| 2026-05-04 02:12 | -21.69014 | -43.87340 | 9248 ft | 154 kts | 355° |
| 2026-05-04 02:12 | -21.67948 | -43.87435 | 9253 ft | 154 kts | 356° |
| 2026-05-04 02:12 | -21.66882 | -43.87531 | 9268 ft | 154 kts | 356° |
| 2026-05-04 02:13 | -21.65816 | -43.87626 | 9272 ft | 154 kts | 355° |
| 2026-05-04 02:13 | -21.64750 | -43.87723 | 9280 ft | 154 kts | 355° |
| 2026-05-04 02:13 | -21.63687 | -43.87820 | 9272 ft | 153 kts | 356° |
| 2026-05-04 02:13 | -21.62624 | -43.87919 | 9263 ft | 153 kts | 355° |
| 2026-05-04 02:14 | -21.61563 | -43.88022 | 9277 ft | 153 kts | 355° |
| 2026-05-04 02:14 | -21.60505 | -43.88124 | 9274 ft | 153 kts | 355° |
| 2026-05-04 02:14 | -21.59431 | -43.88233 | 9259 ft | 153 kts | 355° |
| 2026-05-04 02:14 | -21.58388 | -43.88339 | 9253 ft | 153 kts | 355° |
| 2026-05-04 02:15 | -21.57317 | -43.88449 | 9243 ft | 152 kts | 355° |
| 2026-05-04 02:15 | -21.56262 | -43.88560 | 9242 ft | 152 kts | 355° |
| 2026-05-04 02:15 | -21.55208 | -43.88670 | 9243 ft | 152 kts | 355° |
| 2026-05-04 02:15 | -21.54154 | -43.88782 | 9244 ft | 152 kts | 355° |
| 2026-05-04 02:16 | -21.53099 | -43.88895 | 9240 ft | 152 kts | 355° |
| 2026-05-04 02:16 | -21.52042 | -43.89010 | 9236 ft | 153 kts | 355° |
| 2026-05-04 02:16 | -21.50987 | -43.89127 | 9225 ft | 153 kts | 355° |
| 2026-05-04 02:16 | -21.49929 | -43.89245 | 9216 ft | 153 kts | 355° |
| 2026-05-04 02:17 | -21.48874 | -43.89364 | 9227 ft | 153 kts | 355° |
| 2026-05-04 02:17 | -21.47819 | -43.89485 | 9223 ft | 153 kts | 355° |
| 2026-05-04 02:17 | -21.46765 | -43.89607 | 9214 ft | 153 kts | 355° |
| 2026-05-04 02:17 | -21.45708 | -43.89728 | 9211 ft | 152 kts | 355° |
| 2026-05-04 02:18 | -21.44655 | -43.89855 | 9202 ft | 152 kts | 355° |
| 2026-05-04 02:18 | -21.43602 | -43.89983 | 9199 ft | 152 kts | 354° |
| 2026-05-04 02:18 | -21.42549 | -43.90108 | 9198 ft | 152 kts | 355° |
| 2026-05-04 02:18 | -21.41499 | -43.90232 | 9209 ft | 152 kts | 355° |
| 2026-05-04 02:19 | -21.40449 | -43.90337 | 9209 ft | 152 kts | 356° |
| 2026-05-04 02:19 | -21.39397 | -43.90432 | 9209 ft | 152 kts | 357° |
| 2026-05-04 02:19 | -21.38345 | -43.90520 | 9205 ft | 152 kts | 357° |
| 2026-05-04 02:19 | -21.37290 | -43.90609 | 9197 ft | 152 kts | 356° |
| 2026-05-04 02:20 | -21.36238 | -43.90701 | 9201 ft | 152 kts | 356° |
| 2026-05-04 02:20 | -21.35183 | -43.90789 | 9211 ft | 152 kts | 356° |
| 2026-05-04 02:20 | -21.34131 | -43.90878 | 9206 ft | 152 kts | 356° |
| 2026-05-04 02:20 | -21.33079 | -43.90974 | 9197 ft | 152 kts | 357° |
| 2026-05-04 02:21 | -21.32029 | -43.91070 | 9189 ft | 151 kts | 357° |
| 2026-05-04 02:21 | -21.30980 | -43.91168 | 9188 ft | 151 kts | 356° |
| 2026-05-04 02:21 | -21.29935 | -43.91266 | 9189 ft | 151 kts | 356° |
| 2026-05-04 02:21 | -21.28889 | -43.91365 | 9186 ft | 151 kts | 356° |
| 2026-05-04 02:22 | -21.27843 | -43.91466 | 9184 ft | 151 kts | 356° |
| 2026-05-04 02:22 | -21.26785 | -43.91567 | 9169 ft | 151 kts | 356° |
| 2026-05-04 02:22 | -21.25742 | -43.91667 | 9135 ft | 151 kts | 356° |
| 2026-05-04 02:22 | -21.24694 | -43.91768 | 9123 ft | 151 kts | 356° |
| 2026-05-04 02:23 | -21.23648 | -43.91871 | 9130 ft | 151 kts | 356° |
| 2026-05-04 02:23 | -21.22682 | -43.91965 | 9129 ft | 150 kts | 356° |
| 2026-05-04 02:23 | -21.21599 | -43.92072 | 9118 ft | 150 kts | 356° |
| 2026-05-04 02:23 | -21.20560 | -43.92177 | 9114 ft | 150 kts | 356° |
| 2026-05-04 02:24 | -21.19527 | -43.92286 | 9154 ft | 148 kts | 356° |
| 2026-05-04 02:24 | -21.18507 | -43.92390 | 9163 ft | 147 kts | 356° |
| 2026-05-04 02:24 | -21.17488 | -43.92500 | 9173 ft | 147 kts | 356° |
| 2026-05-04 02:24 | -21.16473 | -43.92611 | 9194 ft | 147 kts | 356° |
| 2026-05-04 02:25 | -21.15460 | -43.92727 | 9214 ft | 146 kts | 356° |
| 2026-05-04 02:25 | -21.14448 | -43.92843 | 9232 ft | 146 kts | 356° |
| 2026-05-04 02:25 | -21.13438 | -43.92955 | 9238 ft | 147 kts | 356° |
| 2026-05-04 02:25 | -21.12421 | -43.93065 | 9257 ft | 147 kts | 356° |
| 2026-05-04 02:26 | -21.11403 | -43.93177 | 9267 ft | 147 kts | 356° |
| 2026-05-04 02:26 | -21.10382 | -43.93290 | 9278 ft | 147 kts | 356° |
| 2026-05-04 02:26 | -21.09349 | -43.93406 | 9287 ft | 147 kts | 356° |
| 2026-05-04 02:26 | -21.08330 | -43.93525 | 9304 ft | 147 kts | 356° |
| 2026-05-04 02:27 | -21.07313 | -43.93647 | 9314 ft | 147 kts | 356° |
| 2026-05-04 02:27 | -21.06292 | -43.93769 | 9322 ft | 147 kts | 356° |
| 2026-05-04 02:27 | -21.05274 | -43.93887 | 9336 ft | 147 kts | 356° |
| 2026-05-04 02:27 | -21.04258 | -43.94007 | 9357 ft | 147 kts | 356° |
| 2026-05-04 02:28 | -21.03245 | -43.94129 | 9368 ft | 147 kts | 355° |
| 2026-05-04 02:28 | -21.02230 | -43.94253 | 9384 ft | 147 kts | 356° |
| 2026-05-04 02:28 | -21.01218 | -43.94381 | 9422 ft | 146 kts | 355° |
| 2026-05-04 02:28 | -21.00207 | -43.94506 | 9438 ft | 146 kts | 355° |
| 2026-05-04 02:29 | -20.99196 | -43.94628 | 9452 ft | 146 kts | 355° |
| 2026-05-04 02:29 | -20.98187 | -43.94751 | 9473 ft | 146 kts | 355° |
| 2026-05-04 02:29 | -20.97175 | -43.94866 | 9481 ft | 146 kts | 356° |
| 2026-05-04 02:29 | -20.96163 | -43.94981 | 9472 ft | 146 kts | 356° |
| 2026-05-04 02:30 | -20.95150 | -43.95097 | 9467 ft | 147 kts | 355° |
| 2026-05-04 02:30 | -20.94135 | -43.95215 | 9468 ft | 147 kts | 355° |
| 2026-05-04 02:30 | -20.93113 | -43.95332 | 9465 ft | 148 kts | 356° |
| 2026-05-04 02:30 | -20.92086 | -43.95450 | 9447 ft | 149 kts | 355° |
| 2026-05-04 02:31 | -20.91055 | -43.95568 | 9437 ft | 149 kts | 355° |
| 2026-05-04 02:31 | -20.90024 | -43.95687 | 9431 ft | 149 kts | 356° |
| 2026-05-04 02:31 | -20.88989 | -43.95810 | 9420 ft | 150 kts | 355° |
| 2026-05-04 02:31 | -20.87948 | -43.95936 | 9400 ft | 151 kts | 355° |
| 2026-05-04 02:32 | -20.86909 | -43.96058 | 9401 ft | 150 kts | 355° |
| 2026-05-04 02:32 | -20.85869 | -43.96185 | 9383 ft | 151 kts | 355° |
| 2026-05-04 02:32 | -20.84827 | -43.96314 | 9367 ft | 151 kts | 355° |
| 2026-05-04 02:32 | -20.83786 | -43.96443 | 9368 ft | 151 kts | 355° |
| 2026-05-04 02:33 | -20.82744 | -43.96575 | 9352 ft | 151 kts | 355° |
| 2026-05-04 02:33 | -20.81688 | -43.96710 | 9340 ft | 151 kts | 355° |
| 2026-05-04 02:33 | -20.80644 | -43.96843 | 9329 ft | 151 kts | 355° |
| 2026-05-04 02:33 | -20.79597 | -43.96978 | 9316 ft | 152 kts | 355° |
| 2026-05-04 02:34 | -20.78550 | -43.97114 | 9310 ft | 152 kts | 355° |
| 2026-05-04 02:34 | -20.77504 | -43.97250 | 9295 ft | 151 kts | 355° |
| 2026-05-04 02:34 | -20.76459 | -43.97392 | 9286 ft | 151 kts | 355° |
| 2026-05-04 02:34 | -20.75416 | -43.97539 | 9305 ft | 151 kts | 355° |
| 2026-05-04 02:35 | -20.74372 | -43.97680 | 9322 ft | 151 kts | 355° |
| 2026-05-04 02:35 | -20.73329 | -43.97818 | 9314 ft | 151 kts | 355° |
| 2026-05-04 02:35 | -20.72284 | -43.97962 | 9316 ft | 151 kts | 355° |
| 2026-05-04 02:35 | -20.71241 | -43.98108 | 9318 ft | 151 kts | 355° |
| 2026-05-04 02:36 | -20.70194 | -43.98251 | 9321 ft | 152 kts | 355° |
| 2026-05-04 02:36 | -20.69149 | -43.98395 | 9315 ft | 152 kts | 355° |
| 2026-05-04 02:36 | -20.68102 | -43.98544 | 9302 ft | 152 kts | 355° |
| 2026-05-04 02:36 | -20.67053 | -43.98692 | 9309 ft | 152 kts | 355° |
| 2026-05-04 02:37 | -20.66007 | -43.98837 | 9309 ft | 152 kts | 355° |
| 2026-05-04 02:37 | -20.64958 | -43.98986 | 9296 ft | 152 kts | 355° |
| 2026-05-04 02:37 | -20.63908 | -43.99139 | 9293 ft | 152 kts | 354° |
| 2026-05-04 02:37 | -20.62859 | -43.99291 | 9291 ft | 152 kts | 355° |
| 2026-05-04 02:38 | -20.61811 | -43.99446 | 9297 ft | 152 kts | 355° |
| 2026-05-04 02:38 | -20.60760 | -43.99582 | 9298 ft | 152 kts | 356° |
| 2026-05-04 02:38 | -20.59706 | -43.99690 | 9301 ft | 152 kts | 357° |
| 2026-05-04 02:38 | -20.58651 | -43.99789 | 9295 ft | 152 kts | 358° |
| 2026-05-04 02:39 | -20.57595 | -43.99887 | 9277 ft | 152 kts | 358° |
| 2026-05-04 02:39 | -20.56537 | -43.99980 | 9278 ft | 152 kts | 358° |
| 2026-05-04 02:39 | -20.55480 | -44.00072 | 9268 ft | 153 kts | 358° |
| 2026-05-04 02:39 | -20.54421 | -44.00165 | 9245 ft | 153 kts | 358° |
| 2026-05-04 02:40 | -20.53362 | -44.00260 | 9244 ft | 153 kts | 358° |
| 2026-05-04 02:40 | -20.52301 | -44.00357 | 9241 ft | 153 kts | 358° |
| 2026-05-04 02:40 | -20.51241 | -44.00456 | 9240 ft | 153 kts | 358° |
| 2026-05-04 02:40 | -20.50182 | -44.00555 | 9250 ft | 153 kts | 358° |
| 2026-05-04 02:41 | -20.49466 | -44.00623 | 9262 ft | 153 kts | 358° |
| 2026-05-04 02:41 | -20.48409 | -44.00726 | 9258 ft | 153 kts | 357° |
| 2026-05-04 02:41 | -20.47349 | -44.00832 | 9259 ft | 153 kts | 357° |
| 2026-05-04 02:41 | -20.46291 | -44.00940 | 9270 ft | 153 kts | 357° |
| 2026-05-04 02:42 | -20.45231 | -44.01045 | 9265 ft | 153 kts | 357° |
| 2026-05-04 02:42 | -20.44169 | -44.01155 | 9261 ft | 153 kts | 357° |
| 2026-05-04 02:42 | -20.43110 | -44.01264 | 9272 ft | 153 kts | 357° |
| 2026-05-04 02:42 | -20.42050 | -44.01369 | 9277 ft | 153 kts | 357° |
| 2026-05-04 02:43 | -20.40992 | -44.01474 | 9275 ft | 153 kts | 357° |
| 2026-05-04 02:43 | -20.39933 | -44.01585 | 9288 ft | 153 kts | 357° |
| 2026-05-04 02:43 | -20.38874 | -44.01697 | 9296 ft | 153 kts | 357° |
| 2026-05-04 02:43 | -20.37813 | -44.01809 | 9271 ft | 153 kts | 357° |
| 2026-05-04 02:44 | -20.36753 | -44.01924 | 9282 ft | 153 kts | 357° |
| 2026-05-04 02:44 | -20.35696 | -44.02039 | 9292 ft | 153 kts | 357° |
| 2026-05-04 02:44 | -20.34638 | -44.02153 | 9296 ft | 153 kts | 357° |
| 2026-05-04 02:44 | -20.33584 | -44.02274 | 9280 ft | 152 kts | 357° |
| 2026-05-04 02:45 | -20.32529 | -44.02392 | 9272 ft | 152 kts | 357° |
| 2026-05-04 02:45 | -20.31476 | -44.02511 | 9284 ft | 152 kts | 357° |
| 2026-05-04 02:45 | -20.30419 | -44.02627 | 9267 ft | 152 kts | 357° |
| 2026-05-04 02:45 | -20.29366 | -44.02748 | 9277 ft | 152 kts | 356° |
| 2026-05-04 02:46 | -20.28314 | -44.02868 | 9276 ft | 152 kts | 357° |
| 2026-05-04 02:46 | -20.27261 | -44.02983 | 9245 ft | 152 kts | 357° |
| 2026-05-04 02:46 | -20.26196 | -44.03105 | 9231 ft | 152 kts | 356° |
| 2026-05-04 02:46 | -20.25146 | -44.03229 | 9227 ft | 152 kts | 357° |
| 2026-05-04 02:47 | -20.24093 | -44.03351 | 9226 ft | 152 kts | 357° |
| 2026-05-04 02:47 | -20.23044 | -44.03475 | 9197 ft | 152 kts | 357° |
| 2026-05-04 02:47 | -20.21994 | -44.03603 | 9196 ft | 152 kts | 356° |
| 2026-05-04 02:47 | -20.20948 | -44.03730 | 9184 ft | 151 kts | 357° |
| 2026-05-04 02:48 | -20.19904 | -44.03860 | 9162 ft | 151 kts | 356° |
| 2026-05-04 02:48 | -20.18869 | -44.03990 | 9129 ft | 149 kts | 356° |
| 2026-05-04 02:48 | -20.17840 | -44.04118 | 9103 ft | 149 kts | 356° |
| 2026-05-04 02:48 | -20.16811 | -44.04244 | 9070 ft | 149 kts | 356° |
| 2026-05-04 02:49 | -20.15786 | -44.04371 | 9048 ft | 148 kts | 357° |
| 2026-05-04 02:49 | -20.14760 | -44.04496 | 9024 ft | 148 kts | 356° |
| 2026-05-04 02:49 | -20.13734 | -44.04621 | 9017 ft | 148 kts | 357° |
| 2026-05-04 02:49 | -20.12710 | -44.04741 | 8988 ft | 148 kts | 356° |
| 2026-05-04 02:50 | -20.11683 | -44.04864 | 8976 ft | 148 kts | 356° |
| 2026-05-04 02:50 | -20.10658 | -44.04991 | 8966 ft | 148 kts | 356° |
| 2026-05-04 02:50 | -20.09633 | -44.05117 | 8950 ft | 148 kts | 356° |
| 2026-05-04 02:50 | -20.08609 | -44.05245 | 8917 ft | 148 kts | 356° |
| 2026-05-04 02:51 | -20.07586 | -44.05373 | 8898 ft | 148 kts | 356° |
| 2026-05-04 02:51 | -20.06563 | -44.05501 | 8884 ft | 148 kts | 356° |
| 2026-05-04 02:51 | -20.05539 | -44.05631 | 8864 ft | 148 kts | 356° |
| 2026-05-04 02:51 | -20.04513 | -44.05761 | 8857 ft | 149 kts | 356° |
| 2026-05-04 02:52 | -20.03487 | -44.05886 | 8832 ft | 148 kts | 356° |
| 2026-05-04 02:52 | -20.02483 | -44.06008 | 8778 ft | 143 kts | 356° |
| 2026-05-04 02:52 | -20.01511 | -44.06127 | 8709 ft | 139 kts | 356° |
| 2026-05-04 02:52 | -20.00559 | -44.06249 | 8639 ft | 137 kts | 356° |
| 2026-05-04 02:53 | -19.99623 | -44.06376 | 8562 ft | 134 kts | 356° |
| 2026-05-04 02:53 | -19.98701 | -44.06496 | 8458 ft | 133 kts | 356° |
| 2026-05-04 02:53 | -19.97793 | -44.06623 | 8363 ft | 130 kts | 356° |
| 2026-05-04 02:53 | -19.96895 | -44.06749 | 8252 ft | 127 kts | 356° |
| 2026-05-04 02:54 | -19.96025 | -44.06873 | 8135 ft | 125 kts | 356° |
| 2026-05-04 02:54 | -19.95164 | -44.06998 | 7999 ft | 124 kts | 356° |
| 2026-05-04 02:54 | -19.94311 | -44.07121 | 7866 ft | 123 kts | 356° |
| 2026-05-04 02:54 | -19.93462 | -44.07247 | 7739 ft | 123 kts | 356° |
| 2026-05-04 02:55 | -19.91780 | -44.07484 | 7503 ft | 121 kts | 4° |
| 2026-05-04 02:55 | -19.90997 | -44.07261 | 7341 ft | 119 kts | 43° |
| 2026-05-04 02:55 | -19.90792 | -44.06416 | 7205 ft | 133 kts | 102° |
| 2026-05-04 02:56 | -19.91471 | -44.05686 | 7163 ft | 155 kts | 155° |
| 2026-05-04 02:56 | -19.92570 | -44.05599 | 7225 ft | 161 kts | 178° |
| 2026-05-04 02:56 | -19.93671 | -44.05645 | 7278 ft | 156 kts | 180° |
| 2026-05-04 02:56 | -19.94748 | -44.05709 | 7294 ft | 154 kts | 180° |
| 2026-05-04 02:57 | -19.95816 | -44.05782 | 7305 ft | 153 kts | 180° |
| 2026-05-04 02:57 | -19.96878 | -44.05855 | 7310 ft | 152 kts | 181° |
| 2026-05-04 02:57 | -19.97931 | -44.05923 | 7293 ft | 152 kts | 180° |
| 2026-05-04 02:57 | -19.98984 | -44.05990 | 7281 ft | 151 kts | 180° |
| 2026-05-04 02:58 | -20.00036 | -44.06046 | 7272 ft | 151 kts | 176° |
| 2026-05-04 02:58 | -20.00988 | -44.05675 | 7203 ft | 149 kts | 133° |
| 2026-05-04 02:58 | -20.01358 | -44.04683 | 7186 ft | 149 kts | 84° |
| 2026-05-04 02:58 | -20.00863 | -44.03752 | 7199 ft | 151 kts | 36° |
| 2026-05-04 02:59 | -19.99834 | -44.03535 | 7221 ft | 157 kts | 358° |
| 2026-05-04 02:59 | -19.98745 | -44.03679 | 7294 ft | 153 kts | 355° |
| 2026-05-04 02:59 | -19.97715 | -44.03846 | 7310 ft | 147 kts | 355° |
| 2026-05-04 02:59 | -19.96714 | -44.03969 | 7316 ft | 143 kts | 359° |
| 2026-05-04 03:00 | -19.95733 | -44.04044 | 7305 ft | 140 kts | 360° |
| 2026-05-04 03:00 | -19.94762 | -44.04098 | 7282 ft | 139 kts | 0° |
| 2026-05-04 03:00 | -19.93799 | -44.04149 | 7256 ft | 138 kts | 1° |
| 2026-05-04 03:00 | -19.92839 | -44.04201 | 7228 ft | 138 kts | 1° |
| 2026-05-04 03:01 | -19.91879 | -44.04249 | 7210 ft | 138 kts | 1° |
| 2026-05-04 03:01 | -19.90924 | -44.04305 | 7166 ft | 138 kts | 1° |
| 2026-05-04 03:01 | -19.89956 | -44.04361 | 7139 ft | 139 kts | 1° |
| 2026-05-04 03:01 | -19.88985 | -44.04416 | 7129 ft | 141 kts | 1° |
| 2026-05-04 03:02 | -19.88003 | -44.04477 | 7126 ft | 142 kts | 1° |
| 2026-05-04 03:02 | -19.87013 | -44.04535 | 7128 ft | 143 kts | 1° |
| 2026-05-04 03:02 | -19.86018 | -44.04595 | 7138 ft | 143 kts | 1° |
| 2026-05-04 03:02 | -19.85020 | -44.04658 | 7150 ft | 144 kts | 0° |
| 2026-05-04 03:03 | -19.84019 | -44.04717 | 7162 ft | 144 kts | 1° |
| 2026-05-04 03:03 | -19.83018 | -44.04775 | 7164 ft | 143 kts | 1° |
| 2026-05-04 03:03 | -19.82029 | -44.04831 | 7157 ft | 142 kts | 1° |
| 2026-05-04 03:03 | -19.81045 | -44.04924 | 7151 ft | 141 kts | 358° |
| 2026-05-04 03:04 | -19.80070 | -44.05047 | 7140 ft | 141 kts | 357° |
| 2026-05-04 03:04 | -19.79102 | -44.05182 | 7101 ft | 140 kts | 356° |
| 2026-05-04 03:04 | -19.78134 | -44.05318 | 7068 ft | 140 kts | 356° |
| 2026-05-04 03:04 | -19.77169 | -44.05455 | 7043 ft | 140 kts | 356° |
| 2026-05-04 03:05 | -19.76203 | -44.05587 | 7018 ft | 140 kts | 356° |
| 2026-05-04 03:05 | -19.75239 | -44.05720 | 6986 ft | 139 kts | 356° |
| 2026-05-04 03:05 | -19.74280 | -44.05859 | 6972 ft | 139 kts | 356° |
| 2026-05-04 03:05 | -19.73320 | -44.06005 | 6956 ft | 139 kts | 358° |
| 2026-05-04 03:06 | -19.72361 | -44.06094 | 6936 ft | 138 kts | 2° |
| 2026-05-04 03:06 | -19.71417 | -44.06105 | 6887 ft | 132 kts | 5° |
| 2026-05-04 03:06 | -19.70520 | -44.06095 | 6786 ft | 126 kts | 5° |
| 2026-05-04 03:06 | -19.69674 | -44.06081 | 6645 ft | 118 kts | 6° |
| 2026-05-04 03:07 | -19.68878 | -44.06292 | 6423 ft | 128 kts | 329° |
| 2026-05-04 03:07 | -19.68281 | -44.07032 | 6234 ft | 129 kts | 314° |
| 2026-05-04 03:07 | -19.67735 | -44.07792 | 6103 ft | 130 kts | 313° |
| 2026-05-04 03:07 | -19.67185 | -44.08570 | 6026 ft | 133 kts | 313° |
| 2026-05-04 03:08 | -19.66619 | -44.09373 | 5970 ft | 140 kts | 313° |
| 2026-05-04 03:08 | -19.66019 | -44.10220 | 5979 ft | 146 kts | 313° |
| 2026-05-04 03:08 | -19.65344 | -44.11026 | 5981 ft | 146 kts | 332° |
| 2026-05-04 03:08 | -19.64421 | -44.11174 | 5889 ft | 131 kts | 24° |
| 2026-05-04 03:09 | -19.63710 | -44.10653 | 5832 ft | 119 kts | 42° |
| 2026-05-04 03:09 | -19.63090 | -44.10114 | 5716 ft | 112 kts | 43° |
| 2026-05-04 03:09 | -19.62501 | -44.09599 | 5586 ft | 107 kts | 44° |
| 2026-05-04 03:09 | -19.61929 | -44.09105 | 5434 ft | 105 kts | 44° |
| 2026-05-04 03:10 | -19.61359 | -44.08617 | 5289 ft | 105 kts | 44° |
| 2026-05-04 03:10 | -19.60779 | -44.08145 | 5159 ft | 105 kts | 43° |
| 2026-05-04 03:10 | -19.60384 | -44.07533 | 5026 ft | 99 kts | 73° |
| 2026-05-04 03:10 | -19.60159 | -44.06867 | 4922 ft | 93 kts | 74° |
| 2026-05-04 03:11 | -19.59965 | -44.06226 | 4664 ft | 94 kts | 76° |
| 2026-05-04 03:11 | -19.59784 | -44.05563 | 4462 ft | 91 kts | 78° |
| 2026-05-04 03:11 | -19.59643 | -44.04951 | 4461 ft | 76 kts | 81° |
| 2026-05-04 03:11 | -19.59538 | -44.04422 | 4393 ft | 70 kts | 81° |
| 2026-05-04 03:12 | -19.59377 | -44.03934 | 4365 ft | 72 kts | 72° |
| 2026-05-04 03:12 | -19.59184 | -44.03408 | 4292 ft | 81 kts | 78° |
| 2026-05-04 03:12 | -19.59044 | -44.02793 | 4234 ft | 90 kts | 80° |
| 2026-05-04 03:12 | -19.58844 | -44.02104 | 4079 ft | 101 kts | 79° |
| 2026-05-04 03:13 | -19.58812 | -44.01414 | 3986 ft | 89 kts | 100° |
| 2026-05-04 03:13 | -19.59083 | -44.00831 | 3802 ft | 91 kts | 126° |
| 2026-05-04 03:13 | -19.59560 | -44.00368 | 3580 ft | 92 kts | 140° |
| 2026-05-04 03:13 | -19.60027 | -43.99935 | 3437 ft | 87 kts | 139° |
| 2026-05-04 03:14 | -19.60346 | -43.99654 | 3343 ft | 91 kts | 139° |
| 2026-05-04 03:14 | -19.60829 | -43.99211 | 3200 ft | 93 kts | 135° |
| 2026-05-04 03:14 | -19.61316 | -43.98753 | 3035 ft | 93 kts | 139° |
| 2026-05-04 03:14 | -19.61800 | -43.98326 | 2914 ft | 90 kts | 137° |
| 2026-05-04 03:15 | -19.62267 | -43.97887 | 2767 ft | 87 kts | 135° |
| 2026-05-04 03:15 | -19.62697 | -43.97493 | 2722 ft | 72 kts | 134° |
| 2026-05-04 03:15 | -19.63019 | -43.97212 | 2729 ft | 48 kts | 134° |
| 2026-05-04 03:15 | -19.63196 | -43.97033 | 2722 ft | 28 kts | 139° |
| 2026-05-04 03:16 | -19.63345 | -43.96896 | 2726 ft | 30 kts | 138° |
| 2026-05-04 03:16 | -19.63502 | -43.96740 | 2729 ft | 31 kts | 128° |
| 2026-05-04 03:16 | -19.63601 | -43.96546 | 2724 ft | 26 kts | 109° |
| 2026-05-04 03:16 | -19.63636 | -43.96414 | 2723 ft | 18 kts | 89° |
| 2026-05-04 03:17 | -19.63552 | -43.96324 | 2727 ft | 19 kts | 29° |
| 2026-05-04 03:17 | -19.63443 | -43.96320 | 2727 ft | 18 kts | 302° |
| 2026-05-04 03:17 | -19.63473 | -43.96398 | 2723 ft | 1 kts | 205° |